Time;durP1;ratioP1;P1;durP2;ratioP2;P2;SDS_P1;SDS_P2;PMS_P1;PMS_P2;Temp;Humidity;BMP_temperature;BMP_pressure;BME280_temperature;BME280_humidity;BME280_pressure;Samples;Min_cycle;Max_cycle;Signal;HPM_P1;HPM_P2
2021/11/10 00:02:07;;;;;;;14.52;9.25;;;;;;;9.10;80.81;99751.97;5013842;28;20059;-62
2021/11/10 00:04:33;;;;;;;16.15;10.70;;;;;;;9.12;81.43;99757.88;5044006;28;20028;-63
2021/11/10 00:06:59;;;;;;;15.30;9.75;;;;;;;8.99;81.94;99726.75;5054273;28;20179;-61
2021/11/10 00:09:24;;;;;;;15.77;9.82;;;;;;;9.15;81.55;99743.88;5068616;28;20574;-62
2021/11/10 00:11:50;;;;;;;16.98;10.15;;;;;;;9.13;81.66;99748.34;5066799;28;20081;-64
2021/11/10 00:14:15;;;;;;;13.35;8.98;;;;;;;9.12;79.73;99738.88;5067990;28;20609;-62
2021/11/10 00:16:41;;;;;;;13.50;8.60;;;;;;;9.15;79.71;99742.09;5052235;28;20020;-61
2021/11/10 00:19:06;;;;;;;12.63;9.40;;;;;;;9.11;79.74;99747.59;5034955;28;20112;-61
2021/11/10 00:21:32;;;;;;;12.98;8.68;;;;;;;9.14;79.46;99742.19;5068272;28;20013;-64
2021/11/10 00:23:58;;;;;;;12.13;8.38;;;;;;;9.12;80.18;99738.88;5062502;28;20032;-63
2021/11/10 00:26:23;;;;;;;14.63;9.00;;;;;;;8.77;80.17;99692.88;5049064;28;20028;-63
2021/11/10 00:28:49;;;;;;;14.48;9.30;;;;;;;9.09;80.33;99741.69;5063166;28;20060;-65
2021/11/10 00:31:15;;;;;;;11.73;8.55;;;;;;;8.85;80.14;99681.06;5064977;28;20028;-64
2021/11/10 00:33:41;;;;;;;12.02;8.25;;;;;;;9.12;80.28;99721.53;5100088;27;20037;-64
2021/11/10 00:36:08;;;;;;;13.15;8.75;;;;;;;8.84;80.52;99676.78;5048087;28;20035;-64
2021/11/10 00:38:34;;;;;;;12.52;8.57;;;;;;;9.11;80.43;99713.84;5066496;28;20036;-63
2021/11/10 00:40:59;;;;;;;15.60;9.13;;;;;;;9.13;80.04;99712.84;5103407;27;20032;-64
2021/11/10 00:43:24;;;;;;;12.15;8.40;;;;;;;9.13;80.44;99715.44;5052164;28;20434;-63
2021/11/10 00:45:50;;;;;;;11.85;8.55;;;;;;;9.09;80.16;99688.03;5054761;28;20111;-63
2021/11/10 00:48:16;;;;;;;14.60;8.20;;;;;;;9.16;79.69;99685.81;5059126;28;20036;-65
2021/11/10 00:50:41;;;;;;;12.50;7.93;;;;;;;9.13;79.36;99683.47;5076606;28;20078;-64
2021/11/10 00:53:07;;;;;;;13.00;8.13;;;;;;;9.18;79.50;99686.53;5053586;28;20062;-63
2021/11/10 00:55:34;;;;;;;13.07;8.48;;;;;;;9.14;78.98;99680.75;5068225;28;20039;-63
2021/11/10 00:58:00;;;;;;;11.77;8.23;;;;;;;9.19;79.84;99683.03;5070960;28;20036;-62
2021/11/10 01:00:25;;;;;;;12.18;8.63;;;;;;;9.21;80.13;99681.97;5068061;28;20379;-64
2021/11/10 01:02:51;;;;;;;12.18;8.30;;;;;;;9.14;79.22;99680.75;5065390;28;20032;-65
2021/11/10 01:05:17;;;;;;;11.98;8.18;;;;;;;9.13;79.52;99666.13;5064519;28;20567;-64
2021/11/10 01:07:43;;;;;;;12.25;7.82;;;;;;;9.17;79.89;99658.94;5058795;28;20843;-65
2021/11/10 01:10:09;;;;;;;13.43;8.35;;;;;;;9.13;80.26;99647.97;5068507;28;20031;-64
2021/11/10 01:12:35;;;;;;;12.32;8.43;;;;;;;8.90;80.38;99621.06;5061629;28;20024;-61
2021/11/10 01:15:02;;;;;;;12.43;8.18;;;;;;;9.19;80.29;99651.88;5065135;28;20036;-65
2021/11/10 01:17:27;;;;;;;12.05;7.45;;;;;;;9.17;79.53;99649.38;5066328;28;20032;-60
2021/11/10 01:19:53;;;;;;;12.30;7.68;;;;;;;9.26;78.71;99653.09;5050703;28;20069;-65
2021/11/10 01:22:18;;;;;;;13.15;7.43;;;;;;;8.93;78.72;99604.47;5067626;28;20036;-61
2021/11/10 01:24:44;;;;;;;12.30;8.35;;;;;;;9.22;78.68;99659.44;5068700;28;20400;-61
2021/11/10 01:27:10;;;;;;;13.70;7.85;;;;;;;9.23;78.72;99655.91;5053464;28;20402;-61
2021/11/10 01:29:36;;;;;;;12.18;7.85;;;;;;;9.31;77.89;99651.00;5056834;28;20028;-63
2021/11/10 01:32:01;;;;;;;13.18;7.63;;;;;;;9.27;78.33;99643.53;5105374;27;20043;-64
2021/11/10 01:34:27;;;;;;;11.52;7.43;;;;;;;8.97;78.31;99605.91;5065988;28;20031;-62
2021/11/10 01:36:52;;;;;;;11.05;7.38;;;;;;;9.28;77.91;99643.44;5070029;28;20380;-60
2021/11/10 01:39:18;;;;;;;10.25;7.28;;;;;;;9.22;78.22;99629.13;5068041;28;20032;-62
2021/11/10 01:41:48;;;;;;;11.32;7.32;;;;;;;9.30;77.90;99638.13;5105759;27;20167;-62
2021/11/10 01:44:20;;;;;;;10.30;7.03;;;;;;;9.15;75.83;99591.59;5060181;28;20072;-63
2021/11/10 01:46:45;;;;;;;10.68;7.03;;;;;;;9.16;76.98;99606.22;5070349;28;20040;-62
2021/11/10 01:49:11;;;;;;;11.73;6.75;;;;;;;9.31;76.32;99619.84;5067050;28;20078;-62
2021/11/10 01:51:50;;;;;;;10.57;6.78;;;;;;;9.37;75.83;99623.78;5067269;28;20089;-61
2021/11/10 01:54:20;;;;;;;10.00;6.80;;;;;;;9.35;74.93;99628.25;5070242;28;20019;-61
2021/11/10 01:56:46;;;;;;;10.10;6.43;;;;;;;8.91;74.34;99546.66;5067475;28;20364;-62
2021/11/10 01:59:29;;;;;;;9.23;6.10;;;;;;;9.39;76.31;99640.06;5069084;28;20173;-62
2021/11/10 02:01:55;;;;;;;9.63;6.18;;;;;;;9.17;76.48;99607.88;5065410;28;20086;-65
2021/11/10 02:04:20;;;;;;;9.98;6.55;;;;;;;9.39;77.02;99640.88;5072880;28;20086;-63
2021/11/10 02:06:45;;;;;;;8.65;6.05;;;;;;;9.35;76.90;99630.84;5050412;28;20035;-63
2021/11/10 02:09:11;;;;;;;9.35;6.15;;;;;;;9.41;77.04;99635.56;5074947;28;20483;-62
2021/11/10 02:11:38;;;;;;;10.93;7.07;;;;;;;9.50;77.75;99628.88;5067036;28;20028;-62
2021/11/10 02:14:05;;;;;;;13.98;7.03;;;;;;;9.19;78.05;99577.44;5073569;28;20028;-61
2021/11/10 02:16:31;;;;;;;9.57;6.30;;;;;;;9.17;78.42;99575.91;5065401;28;20040;-63
2021/11/10 02:18:57;;;;;;;10.77;6.75;;;;;;;9.32;78.42;99611.13;5072452;28;20024;-62
2021/11/10 02:21:23;;;;;;;10.07;6.68;;;;;;;9.37;78.33;99613.38;5067375;28;20095;-61
2021/11/10 02:23:49;;;;;;;10.60;6.88;;;;;;;9.38;78.87;99608.09;5067775;28;20553;-62
2021/11/10 02:26:16;;;;;;;12.18;6.25;;;;;;;9.42;79.90;99608.69;5059832;28;20031;-62
2021/11/10 02:28:42;;;;;;;11.13;6.00;;;;;;;9.38;78.17;99608.09;5042840;28;20031;-64
2021/11/10 02:31:10;;;;;;;11.63;5.97;;;;;;;9.35;78.39;99605.72;5052226;28;20419;-62
2021/11/10 02:33:35;;;;;;;8.93;5.72;;;;;;;9.34;77.82;99598.84;5066235;28;20017;-62
2021/11/10 02:36:04;;;;;;;9.43;5.30;;;;;;;9.32;78.32;99599.91;5067055;28;20044;-63
2021/11/10 02:38:30;;;;;;;8.02;5.05;;;;;;;9.32;78.97;99592.94;5068589;28;20028;-63
2021/11/10 02:40:57;;;;;;;8.98;5.38;;;;;;;9.37;78.99;99603.81;5071821;28;20024;-64
2021/11/10 02:43:23;;;;;;;9.05;5.22;;;;;;;9.36;79.29;99609.97;5070982;28;20035;-62
2021/11/10 02:45:49;;;;;;;10.25;5.57;;;;;;;9.35;79.00;99605.72;5052011;28;20032;-62
2021/11/10 02:48:15;;;;;;;7.97;5.22;;;;;;;9.20;79.45;99609.44;5074515;28;20035;-64
2021/11/10 02:50:40;;;;;;;9.90;5.45;;;;;;;9.28;79.67;99619.25;5067107;28;20106;-63
2021/11/10 02:53:06;;;;;;;9.57;5.85;;;;;;;9.32;79.64;99621.50;5058390;28;20028;-62
2021/11/10 02:55:31;;;;;;;11.60;5.88;;;;;;;9.37;79.88;99615.97;5069503;28;20506;-63
2021/11/10 02:57:57;;;;;;;9.18;5.45;;;;;;;9.08;79.14;99571.41;5069109;28;20364;-65
2021/11/10 03:00:23;;;;;;;8.73;5.07;;;;;;;9.28;79.28;99607.09;5077234;28;20046;-61
2021/11/10 03:02:50;;;;;;;10.40;5.60;;;;;;;9.20;80.00;99612.84;5076672;28;20028;-63
2021/11/10 03:05:16;;;;;;;9.63;5.50;;;;;;;9.18;80.22;99606.09;5058185;28;20028;-64
2021/11/10 03:07:41;;;;;;;11.15;5.95;;;;;;;9.14;81.03;99625.44;5070144;28;20090;-63
2021/11/10 03:10:07;;;;;;;13.10;6.22;;;;;;;9.18;81.57;99632.03;5073225;28;20040;-62
2021/11/10 03:12:33;;;;;;;13.15;6.40;;;;;;;9.18;82.61;99637.22;5069505;28;20038;-62
2021/11/10 03:14:58;;;;;;;10.93;6.43;;;;;;;9.15;83.73;99637.47;5070717;28;20033;-63
2021/11/10 03:17:24;;;;;;;11.05;6.47;;;;;;;9.13;83.72;99632.41;5055809;28;20027;-63
2021/11/10 03:19:50;;;;;;;10.45;6.53;;;;;;;8.96;83.72;99599.03;5070156;28;20256;-62
2021/11/10 03:22:16;;;;;;;10.65;6.70;;;;;;;9.19;84.26;99633.72;5067996;28;20127;-62
2021/11/10 03:24:42;;;;;;;9.88;6.22;;;;;;;9.19;84.82;99638.91;5062155;28;20043;-62
2021/11/10 03:27:07;;;;;;;15.40;6.82;;;;;;;9.21;85.00;99631.84;5067378;28;20024;-61
2021/11/10 03:29:34;;;;;;;9.82;6.45;;;;;;;9.06;83.58;99636.38;5067656;28;20036;-62
2021/11/10 03:31:59;;;;;;;11.43;6.68;;;;;;;9.05;84.59;99632.09;5057343;28;20151;-62
2021/11/10 03:34:25;;;;;;;12.85;6.70;;;;;;;9.04;83.17;99628.69;5063938;28;20093;-62
2021/11/10 03:36:50;;;;;;;9.52;6.65;;;;;;;8.87;84.44;99597.97;5078514;28;20036;-65
2021/11/10 03:39:17;;;;;;;9.50;6.35;;;;;;;9.14;85.31;99641.81;5053208;28;20653;-62
2021/11/10 03:41:42;;;;;;;10.23;6.47;;;;;;;9.18;85.68;99639.84;5080012;28;20024;-64
2021/11/10 03:44:08;;;;;;;11.10;6.15;;;;;;;9.11;86.00;99647.25;5061492;28;20044;-63
2021/11/10 03:46:34;;;;;;;9.60;6.32;;;;;;;8.72;86.70;99586.88;5071279;28;20127;-62
2021/11/10 03:49:00;;;;;;;10.73;6.28;;;;;;;8.99;86.59;99632.56;5075474;28;20048;-62
2021/11/10 03:51:27;;;;;;;10.30;6.32;;;;;;;8.90;86.44;99610.69;5070686;28;20587;-63
2021/11/10 03:53:52;;;;;;;10.93;6.65;;;;;;;8.98;86.28;99623.09;5055558;28;20038;-62
2021/11/10 03:56:18;;;;;;;9.90;6.30;;;;;;;8.94;85.75;99619.06;5055169;28;20021;-64
2021/11/10 03:58:43;;;;;;;9.88;6.70;;;;;;;9.02;85.80;99629.75;5075424;28;20033;-62
2021/11/10 04:01:09;;;;;;;9.85;6.40;;;;;;;9.03;86.63;99628.78;5069562;28;20035;-62
2021/11/10 04:03:35;;;;;;;10.15;6.68;;;;;;;9.11;87.29;99642.06;5072642;28;20506;-62
2021/11/10 04:06:01;;;;;;;11.65;6.75;;;;;;;8.83;86.78;99591.31;5067756;28;20035;-63
2021/11/10 04:08:27;;;;;;;10.45;7.05;;;;;;;9.12;86.74;99659.25;5068918;28;20033;-66
2021/11/10 04:10:52;;;;;;;11.77;6.65;;;;;;;9.15;86.29;99659.06;5065995;28;20095;-63
2021/11/10 04:13:17;;;;;;;11.02;6.63;;;;;;;8.92;85.61;99610.56;5089095;28;20078;-64
2021/11/10 04:15:44;;;;;;;9.18;6.20;;;;;;;8.88;86.33;99622.94;5058434;28;20081;-63
2021/11/10 04:18:09;;;;;;;10.50;6.60;;;;;;;9.18;86.88;99658.00;5066121;28;20040;-63
2021/11/10 04:20:35;;;;;;;10.25;6.65;;;;;;;8.99;87.08;99620.41;5067016;28;20502;-62
2021/11/10 04:23:00;;;;;;;11.05;6.63;;;;;;;9.24;87.50;99661.00;5085861;28;20036;-65
2021/11/10 04:25:26;;;;;;;13.15;6.90;;;;;;;9.10;87.33;99639.56;5069179;28;20063;-64
2021/11/10 04:27:51;;;;;;;9.77;5.97;;;;;;;9.16;87.48;99649.50;5065771;28;20040;-64
2021/11/10 04:30:17;;;;;;;10.45;7.35;;;;;;;9.20;87.27;99656.16;5057627;28;20028;-62
2021/11/10 04:32:44;;;;;;;11.18;7.47;;;;;;;9.13;87.07;99645.38;5102182;27;20048;-64
2021/11/10 04:35:11;;;;;;;11.30;6.88;;;;;;;9.15;86.97;99655.63;5102871;27;20028;-64
2021/11/10 04:37:37;;;;;;;9.80;6.50;;;;;;;9.12;86.48;99648.88;5068330;28;20136;-64
2021/11/10 04:40:08;;;;;;;11.35;7.10;;;;;;;9.07;86.49;99642.38;5059817;28;20151;-63
2021/11/10 04:42:33;;;;;;;10.85;6.50;;;;;;;9.02;86.75;99653.91;5056708;28;20411;-63
2021/11/10 04:45:05;;;;;;;12.57;6.93;;;;;;;9.06;87.37;99643.31;5067186;28;20028;-63
2021/11/10 04:47:31;;;;;;;11.32;6.55;;;;;;;9.11;87.28;99649.00;4969144;28;20623;-65
2021/11/10 04:49:56;;;;;;;11.30;7.25;;;;;;;8.74;88.13;99605.75;5062417;28;20031;-63
2021/11/10 04:52:22;;;;;;;10.80;6.68;;;;;;;9.02;87.17;99646.13;5046509;28;20099;-63
2021/11/10 04:54:49;;;;;;;11.77;7.00;;;;;;;9.03;87.51;99647.81;5065775;28;20379;-64
2021/11/10 04:57:14;;;;;;;12.40;7.40;;;;;;;8.93;86.36;99643.38;5063505;28;20063;-63
2021/11/10 04:59:40;;;;;;;11.68;7.40;;;;;;;8.99;85.92;99648.13;5059080;28;21042;-65
2021/11/10 05:04:31;;;;;;;11.52;7.32;;;;;;;9.10;88.08;99645.56;4972366;28;20044;-64
2021/11/10 05:06:57;;;;;;;12.60;7.38;;;;;;;9.16;88.29;99649.50;5054010;28;20397;-64
2021/11/10 05:09:23;;;;;;;11.00;7.05;;;;;;;8.84;88.89;99609.34;5065488;28;20032;-63
2021/11/10 05:11:49;;;;;;;11.13;7.00;;;;;;;9.07;89.28;99645.78;5053396;28;20140;-64
2021/11/10 05:14:14;;;;;;;11.75;7.03;;;;;;;9.08;88.64;99655.25;5106337;27;20102;-63
2021/11/10 05:16:40;;;;;;;10.15;7.18;;;;;;;9.19;88.14;99665.69;5051246;28;20047;-64
2021/11/10 05:19:05;;;;;;;10.63;7.00;;;;;;;9.12;88.72;99648.06;5058863;28;20550;-63
2021/11/10 05:21:31;;;;;;;10.25;6.75;;;;;;;9.10;89.07;99647.34;5098767;27;20051;-63
2021/11/10 05:23:56;;;;;;;9.55;6.72;;;;;;;9.15;89.34;99648.69;5074431;28;20082;-64
2021/11/10 05:26:22;;;;;;;11.23;6.55;;;;;;;8.88;89.00;99611.75;5077347;28;20607;-63
2021/11/10 05:28:47;;;;;;;11.68;7.13;;;;;;;8.75;89.77;99599.63;5057940;28;20074;-61
2021/11/10 05:31:13;;;;;;;9.23;6.47;;;;;;;9.02;87.61;99648.72;5070019;28;20380;-64
2021/11/10 05:33:38;;;;;;;11.43;7.28;;;;;;;9.01;87.60;99646.25;5055142;28;20035;-63
2021/11/10 05:36:04;;;;;;;12.07;7.90;;;;;;;8.85;88.37;99607.59;5001296;28;20031;-63
2021/11/10 05:38:29;;;;;;;10.85;7.57;;;;;;;9.14;88.63;99656.56;5088893;28;20036;-63
2021/11/10 05:40:55;;;;;;;11.07;7.15;;;;;;;9.18;89.03;99655.41;5071057;28;20031;-63
2021/11/10 05:43:20;;;;;;;9.85;6.70;;;;;;;9.13;88.20;99644.56;5062122;28;20608;-62
2021/11/10 05:45:48;;;;;;;11.73;6.30;;;;;;;9.18;85.54;99656.25;5082397;28;20053;-64
2021/11/10 05:48:13;;;;;;;9.63;5.90;;;;;;;9.22;82.76;99659.44;5062065;28;20024;-62
2021/11/10 05:50:39;;;;;;;8.82;5.85;;;;;;;9.17;81.10;99648.56;5066981;28;20039;-64
2021/11/10 05:53:05;;;;;;;9.60;5.53;;;;;;;9.25;80.55;99659.22;5001144;28;20247;-64
2021/11/10 05:55:31;;;;;;;11.75;5.97;;;;;;;9.24;80.14;99661.00;5065933;28;20077;-62
2021/11/10 05:57:57;;;;;;;10.10;6.57;;;;;;;9.15;80.17;99671.22;5071130;28;20407;-63
2021/11/10 06:00:23;;;;;;;9.32;5.68;;;;;;;9.09;79.26;99666.44;5067245;28;20028;-62
2021/11/10 06:02:48;;;;;;;9.00;6.43;;;;;;;9.18;79.81;99679.59;5053583;28;20031;-63
2021/11/10 06:05:15;;;;;;;9.45;6.07;;;;;;;9.22;79.20;99685.41;5107855;27;20035;-63
2021/11/10 06:07:41;;;;;;;11.40;6.40;;;;;;;9.16;79.66;99680.63;5056535;28;20525;-64
2021/11/10 06:10:06;;;;;;;10.00;5.85;;;;;;;8.88;79.53;99641.09;5073452;28;20126;-65
2021/11/10 06:12:32;;;;;;;10.40;5.97;;;;;;;9.19;79.66;99681.25;5050224;28;20119;-63
2021/11/10 06:14:57;;;;;;;9.80;6.32;;;;;;;8.97;79.78;99642.22;5069934;28;20063;-63
2021/11/10 06:17:22;;;;;;;11.63;6.40;;;;;;;9.09;79.85;99669.03;5050004;28;20119;-64
2021/11/10 06:19:48;;;;;;;9.32;5.85;;;;;;;9.18;79.71;99681.34;5054862;28;20600;-63
2021/11/10 06:22:13;;;;;;;11.48;6.22;;;;;;;9.18;79.19;99673.56;5068820;28;20032;-63
2021/11/10 06:24:39;;;;;;;9.65;6.45;;;;;;;9.13;79.87;99679.09;5069932;28;20028;-63
2021/11/10 06:27:04;;;;;;;11.07;7.35;;;;;;;8.82;79.43;99644.13;5069294;28;20028;-63
2021/11/10 06:29:30;;;;;;;11.00;6.68;;;;;;;9.14;79.23;99683.34;5062542;28;20031;-63
2021/11/10 06:31:55;;;;;;;11.60;6.97;;;;;;;9.16;80.24;99684.06;5072546;28;20115;-63
2021/11/10 06:34:21;;;;;;;10.80;6.28;;;;;;;9.15;79.65;99687.59;5051228;28;20032;-62
2021/11/10 06:36:46;;;;;;;11.40;6.50;;;;;;;9.19;78.94;99690.81;5069035;28;20036;-62
2021/11/10 06:39:12;;;;;;;9.52;5.90;;;;;;;9.19;79.41;99696.81;5064836;28;20024;-64
2021/11/10 06:41:37;;;;;;;10.98;6.10;;;;;;;9.18;78.99;99700.38;5093837;27;20051;-62
2021/11/10 06:44:03;;;;;;;10.23;6.57;;;;;;;9.19;78.95;99699.41;5064598;28;20028;-62
2021/11/10 06:46:29;;;;;;;10.10;6.22;;;;;;;8.94;79.42;99645.84;5048682;28;20036;-63
2021/11/10 06:48:54;;;;;;;10.23;6.20;;;;;;;9.16;79.08;99702.25;5051015;28;20484;-64
2021/11/10 06:51:20;;;;;;;9.10;5.80;;;;;;;9.17;79.07;99700.47;5051759;28;20032;-62
2021/11/10 06:53:45;;;;;;;10.07;5.90;;;;;;;9.12;79.27;99697.38;5065253;28;20024;-62
2021/11/10 06:56:11;;;;;;;8.65;5.57;;;;;;;8.90;78.78;99646.19;5060463;28;20020;-62
2021/11/10 06:58:37;;;;;;;9.80;5.35;;;;;;;9.20;78.28;99675.13;5048057;28;20032;-64
2021/11/10 07:01:02;;;;;;;10.93;5.60;;;;;;;9.22;77.80;99686.22;5061103;28;20028;-63
2021/11/10 07:03:28;;;;;;;9.80;6.28;;;;;;;9.21;78.51;99684.56;5044441;28;20032;-63
2021/11/10 07:05:53;;;;;;;8.38;5.65;;;;;;;9.18;78.22;99673.56;4988950;28;20606;-65
2021/11/10 07:08:19;;;;;;;9.75;5.60;;;;;;;9.21;77.90;99675.94;5044181;28;20120;-64
2021/11/10 07:10:44;;;;;;;11.55;5.65;;;;;;;9.08;77.40;99644.03;5065041;28;20035;-64
2021/11/10 07:13:10;;;;;;;11.65;5.25;;;;;;;9.28;77.85;99686.72;5060601;28;20271;-65
2021/11/10 07:15:35;;;;;;;10.40;6.53;;;;;;;9.33;78.61;99679.44;5084582;28;20114;-63
2021/11/10 07:18:01;;;;;;;8.95;5.20;;;;;;;9.34;78.62;99679.31;5061066;28;20033;-63
2021/11/10 07:20:26;;;;;;;10.00;5.68;;;;;;;9.34;77.87;99683.69;5068846;28;20435;-63
2021/11/10 07:22:53;;;;;;;10.23;5.20;;;;;;;9.34;78.58;99671.53;5046726;28;20055;-65
2021/11/10 07:25:18;;;;;;;8.55;5.47;;;;;;;9.33;78.73;99671.66;5059275;28;20063;-64
2021/11/10 07:27:44;;;;;;;9.23;5.13;;;;;;;9.45;77.90;99688.09;5070442;28;20037;-64
2021/11/10 07:30:12;;;;;;;8.05;5.00;;;;;;;9.40;77.95;99691.00;5072092;28;20058;-63
2021/11/10 07:32:38;;;;;;;11.00;5.05;;;;;;;9.40;77.57;99691.00;5074603;28;20746;-63
2021/11/10 07:35:04;;;;;;;9.35;5.13;;;;;;;9.42;77.82;99686.56;5068410;28;20111;-63
2021/11/10 07:37:32;;;;;;;9.02;5.35;;;;;;;9.46;77.54;99680.22;5055677;28;20028;-64
2021/11/10 07:39:58;;;;;;;8.68;5.03;;;;;;;9.40;76.84;99676.28;5070893;28;20085;-63
2021/11/10 07:42:23;;;;;;;7.78;4.95;;;;;;;9.46;77.41;99674.19;5052066;28;20086;-63
2021/11/10 07:44:53;;;;;;;10.20;4.55;;;;;;;9.47;74.98;99655.06;5107944;27;20043;-65
2021/11/10 07:47:21;;;;;;;;;;;;;;;9.49;74.78;99666.16;5049935;28;20028;-65
2021/11/10 07:49:46;;;;;;;9.25;4.25;;;;;;;9.45;75.48;99655.16;5077294;28;19957;-64
2021/11/10 07:52:12;;;;;;;8.38;4.57;;;;;;;9.46;75.18;99649.06;5065316;28;20031;-62
2021/11/10 07:54:38;;;;;;;9.50;4.80;;;;;;;9.22;75.27;99603.19;5022152;28;20475;-63
2021/11/10 07:57:04;;;;;;;10.05;4.47;;;;;;;9.55;74.06;99643.19;5101474;27;20031;-63
2021/11/10 07:59:29;;;;;;;6.97;3.95;;;;;;;9.32;72.62;99581.75;5103162;27;20543;-64
2021/11/10 08:01:54;;;;;;;7.93;4.32;;;;;;;9.58;73.33;99617.00;5073098;28;20025;-63
2021/11/10 08:04:20;;;;;;;7.53;4.03;;;;;;;9.68;73.09;99626.72;5074945;28;20115;-61
2021/11/10 08:06:45;;;;;;;7.80;4.32;;;;;;;9.78;71.32;99631.09;5054177;28;20062;-64
2021/11/10 08:09:11;;;;;;;10.32;4.07;;;;;;;9.75;71.14;99625.31;4994864;28;20157;-64
2021/11/10 08:11:37;;;;;;;6.60;3.65;;;;;;;9.79;70.22;99627.53;5087750;28;20031;-63
2021/11/10 08:14:03;;;;;;;7.82;3.88;;;;;;;9.84;69.61;99635.00;5071130;28;20249;-63
2021/11/10 08:16:29;;;;;;;7.53;3.78;;;;;;;10.01;68.41;99621.56;5054695;28;20090;-63
2021/11/10 08:18:54;;;;;;;7.70;3.60;;;;;;;9.92;66.20;99600.66;5068549;28;20588;-63
2021/11/10 08:21:20;;;;;;;7.15;3.38;;;;;;;10.11;66.26;99619.09;5070991;28;20063;-63
2021/11/10 08:23:46;;;;;;;8.48;3.65;;;;;;;10.19;66.15;99624.53;5071253;28;20032;-63
2021/11/10 08:26:11;;;;;;;7.20;3.67;;;;;;;10.31;65.49;99632.34;5066837;28;20081;-64
2021/11/10 08:28:36;;;;;;;6.95;3.22;;;;;;;10.30;66.28;99623.72;5056117;28;20048;-63
2021/11/10 08:31:02;;;;;;;7.63;3.88;;;;;;;10.35;66.22;99613.00;5058047;28;20487;-64
2021/11/10 08:33:28;;;;;;;6.40;3.40;;;;;;;10.44;65.10;99621.84;5070389;28;20127;-62
2021/11/10 08:35:54;;;;;;;7.28;3.30;;;;;;;10.42;65.33;99629.75;5088175;28;20107;-63
2021/11/10 08:38:20;;;;;;;6.22;3.58;;;;;;;10.42;65.22;99627.16;5055513;28;20123;-63
2021/11/10 08:40:46;;;;;;;7.15;3.47;;;;;;;10.22;67.83;99588.84;5073462;28;20103;-65
2021/11/10 08:43:12;;;;;;;9.48;3.90;;;;;;;10.41;66.63;99617.72;5068506;28;20027;-63
2021/11/10 08:45:40;;;;;;;6.63;3.70;;;;;;;10.35;67.78;99613.81;5060113;28;20101;-64
2021/11/10 08:48:06;;;;;;;8.30;3.90;;;;;;;10.02;69.51;99575.63;5066293;28;20511;-63
2021/11/10 08:50:35;;;;;;;9.90;3.95;;;;;;;10.26;69.23;99611.91;5059832;28;20038;-62
2021/11/10 08:53:01;;;;;;;6.80;3.78;;;;;;;10.34;70.22;99614.75;5050894;28;20052;-62
2021/11/10 08:55:27;;;;;;;7.65;4.13;;;;;;;10.33;72.36;99626.13;5048152;28;20548;-63
2021/11/10 08:57:53;;;;;;;7.20;4.50;;;;;;;10.30;73.68;99628.09;5058739;28;20034;-63
2021/11/10 09:00:24;;;;;;;8.65;4.60;;;;;;;10.30;74.72;99622.88;5084776;28;20024;-63
2021/11/10 09:02:50;;;;;;;9.30;4.38;;;;;;;10.28;74.35;99622.19;5085427;28;20426;-63
2021/11/10 09:05:16;;;;;;;8.13;4.63;;;;;;;10.25;75.35;99606.81;5064309;28;20024;-64
2021/11/10 09:07:45;;;;;;;7.60;4.25;;;;;;;10.26;74.59;99617.09;5064941;28;20031;-62
2021/11/10 09:10:13;;;;;;;9.85;4.63;;;;;;;10.23;75.58;99604.34;5082557;28;20931;-62
2021/11/10 09:12:40;;;;;;;7.43;3.75;;;;;;;10.37;73.84;99611.94;5048857;28;20690;-63
2021/11/10 09:15:07;;;;;;;7.55;4.03;;;;;;;10.33;73.91;99607.91;5064907;28;20032;-63
2021/11/10 09:17:35;;;;;;;8.43;4.30;;;;;;;10.29;73.97;99608.22;5037527;28;20021;-63
2021/11/10 09:20:06;;;;;;;7.63;4.38;;;;;;;10.30;73.40;99607.28;5074439;28;20036;-63
2021/11/10 09:22:32;;;;;;;8.70;4.13;;;;;;;10.36;73.90;99602.47;5084141;28;20038;-64
2021/11/10 09:24:58;;;;;;;10.93;5.00;;;;;;;10.36;73.84;99579.06;5073266;28;20550;-65
2021/11/10 09:27:23;;;;;;;11.00;5.15;;;;;;;10.41;74.31;99568.31;5097867;27;20541;-65
2021/11/10 09:29:49;;;;;;;7.28;4.18;;;;;;;10.47;75.39;99573.03;5063256;28;20039;-64
2021/11/10 09:32:15;;;;;;;7.95;4.38;;;;;;;10.50;75.58;99566.78;5056693;28;20078;-64
2021/11/10 09:34:40;;;;;;;7.80;3.75;;;;;;;10.62;75.59;99576.19;5081533;28;20052;-64
2021/11/10 09:37:06;;;;;;;7.82;4.28;;;;;;;10.63;76.17;99579.63;5051443;28;20120;-64
2021/11/10 09:39:31;;;;;;;7.22;3.70;;;;;;;10.61;74.30;99573.72;5051726;28;20028;-63
2021/11/10 09:41:57;;;;;;;8.18;3.97;;;;;;;10.69;72.16;99572.16;5064441;28;20728;-64
2021/11/10 09:44:24;;;;;;;10.57;4.30;;;;;;;10.75;72.16;99571.69;5072157;28;20020;-62
2021/11/10 09:46:50;;;;;;;9.82;4.00;;;;;;;10.49;73.15;99533.91;5067326;28;20090;-63
2021/11/10 09:49:16;;;;;;;9.18;4.60;;;;;;;10.75;73.31;99583.84;5056610;28;20430;-64
2021/11/10 09:51:43;;;;;;;10.35;5.57;;;;;;;10.76;73.54;99581.13;5068248;28;20607;-62
2021/11/10 09:54:09;;;;;;;9.25;4.93;;;;;;;10.84;73.02;99587.50;5063998;28;20554;-63
2021/11/10 09:56:36;;;;;;;8.73;3.85;;;;;;;10.88;72.83;99599.31;5065633;28;20539;-63
2021/11/10 09:59:03;;;;;;;7.40;3.55;;;;;;;10.85;73.02;99597.78;5083129;28;20089;-63
2021/11/10 10:01:29;;;;;;;7.95;3.70;;;;;;;10.89;72.80;99587.97;5053695;28;20112;-63
2021/11/10 10:03:56;;;;;;;7.10;3.78;;;;;;;10.85;73.19;99582.16;5065711;28;20101;-63
2021/11/10 10:06:22;;;;;;;8.60;4.32;;;;;;;10.60;73.25;99539.06;5056757;28;20586;-64
2021/11/10 10:08:48;;;;;;;8.35;3.88;;;;;;;10.87;72.43;99571.66;5052761;28;20054;-63
2021/11/10 10:11:14;;;;;;;6.18;3.70;;;;;;;11.01;71.50;99580.97;5083084;28;20154;-63
2021/11/10 10:13:39;;;;;;;8.05;3.80;;;;;;;11.07;71.43;99586.47;5067978;28;20044;-63
2021/11/10 10:16:06;;;;;;;7.97;3.97;;;;;;;11.10;70.71;99565.41;5068989;28;20491;-65
2021/11/10 10:18:31;;;;;;;7.45;3.78;;;;;;;11.25;69.91;99570.31;5064934;28;20070;-63
2021/11/10 10:21:03;;;;;;;7.03;3.40;;;;;;;11.37;69.08;99566.69;5035218;28;20036;-64
2021/11/10 10:23:34;;;;;;;8.43;3.78;;;;;;;11.44;69.83;99559.22;5106830;27;20027;-64
2021/11/10 10:26:05;;;;;;;7.30;3.78;;;;;;;11.48;69.61;99558.00;5062999;28;20035;-63
2021/11/10 10:28:33;;;;;;;9.02;3.65;;;;;;;11.54;69.49;99568.75;5067498;28;20012;-63
2021/11/10 10:31:07;;;;;;;8.95;4.60;;;;;;;11.59;69.68;99577.94;5073729;28;20035;-64
2021/11/10 10:33:55;;;;;;;8.30;3.88;;;;;;;11.68;68.69;99575.41;5059665;28;20028;-65
2021/11/10 10:36:31;;;;;;;6.97;3.60;;;;;;;11.80;66.97;99557.09;5070096;28;20102;-64
2021/11/10 10:38:59;;;;;;;9.73;4.03;;;;;;;12.00;66.91;99569.28;5066646;28;20082;-63
2021/11/10 10:41:28;;;;;;;7.20;3.97;;;;;;;12.13;64.92;99571.69;5066964;28;20028;-65
2021/11/10 10:43:55;;;;;;;9.07;4.50;;;;;;;12.25;64.86;99562.81;5066262;28;20033;-64
2021/11/10 10:46:32;;;;;;;9.10;4.00;;;;;;;12.00;63.51;99495.50;5073319;28;20036;-64
2021/11/10 10:49:16;;;;;;;8.05;4.13;;;;;;;12.33;63.31;99528.25;5064301;28;20559;-63
2021/11/10 10:51:52;;;;;;;7.22;4.40;;;;;;;12.05;63.15;99488.94;5069396;28;20518;-63
2021/11/10 10:54:18;;;;;;;9.82;4.90;;;;;;;12.28;63.30;99535.63;5069326;28;20499;-62
2021/11/10 10:56:53;;;;;;;8.27;4.60;;;;;;;12.21;62.72;99521.47;5046803;28;20566;-63
2021/11/10 10:59:22;;;;;;;7.93;5.10;;;;;;;12.18;62.74;99516.53;5063217;28;20029;-62
2021/11/10 11:01:56;;;;;;;9.33;5.17;;;;;;;12.34;61.47;99553.38;5058880;28;20107;-62
2021/11/10 11:04:32;;;;;;;8.30;4.03;;;;;;;12.31;59.72;99564.06;5050071;28;20047;-62
2021/11/10 11:07:02;;;;;;;6.43;3.42;;;;;;;12.26;58.89;99563.63;5098897;27;20154;-63
2021/11/10 11:09:49;;;;;;;6.50;3.15;;;;;;;12.39;57.24;99552.97;5073996;28;20020;-62
2021/11/10 11:12:17;;;;;;;7.38;3.10;;;;;;;12.35;56.72;99541.16;5066848;28;20074;-63
2021/11/10 11:14:49;;;;;;;6.25;3.20;;;;;;;12.26;56.17;99533.16;5083511;28;20123;-61
2021/11/10 11:17:36;;;;;;;6.68;2.92;;;;;;;12.25;56.76;99535.91;5058886;28;20684;-62
2021/11/10 11:20:23;;;;;;;6.03;2.78;;;;;;;11.97;56.77;99480.13;5073321;28;20479;-63
2021/11/10 11:22:54;;;;;;;6.28;2.97;;;;;;;12.29;57.30;99527.69;5072911;28;20254;-63
2021/11/10 11:25:26;;;;;;;7.47;3.75;;;;;;;12.38;57.29;99507.81;5060200;28;20024;-62
2021/11/10 11:27:51;;;;;;;7.63;3.22;;;;;;;12.45;57.68;99508.09;5069906;28;20482;-63
2021/11/10 11:30:17;;;;;;;6.95;2.92;;;;;;;12.54;58.41;99501.22;5052138;28;20037;-63
2021/11/10 11:32:51;;;;;;;5.95;3.10;;;;;;;12.60;57.64;99495.50;5057637;28;20076;-63
2021/11/10 11:35:30;;;;;;;5.38;2.70;;;;;;;12.64;57.59;99489.03;5065077;28;20622;-62
2021/11/10 11:37:58;;;;;;;6.47;2.80;;;;;;;12.71;57.60;99497.16;5073461;28;20028;-64